sensor_id;sensor_type;location;lat;lon;timestamp;pressure;altitude;pressure_sealevel;temperature;humidity
36284;BME280;56085;48.910;9.478;2023-06-10T00:00:17;97662.00;;;41.28;13.22
36284;BME280;56085;48.910;9.478;2023-06-10T00:02:43;97665.06;;;41.30;13.01
36284;BME280;56085;48.910;9.478;2023-06-10T00:05:09;97657.94;;;41.24;13.10
36284;BME280;56085;48.910;9.478;2023-06-10T00:07:34;97671.69;;;40.90;13.12
36284;BME280;56085;48.910;9.478;2023-06-10T00:10:04;97730.03;;;41.35;13.21
36284;BME280;56085;48.910;9.478;2023-06-10T00:12:31;97671.84;;;41.25;13.06
36284;BME280;56085;48.910;9.478;2023-06-10T00:15:02;97657.13;;;41.39;13.35
36284;BME280;56085;48.910;9.478;2023-06-10T00:17:27;97654.22;;;41.39;13.19
36284;BME280;56085;48.910;9.478;2023-06-10T00:19:54;97672.66;;;41.26;13.13
36284;BME280;56085;48.910;9.478;2023-06-10T00:22:20;97669.56;;;41.24;13.44
36284;BME280;56085;48.910;9.478;2023-06-10T00:24:47;97654.38;;;41.41;13.04
36284;BME280;56085;48.910;9.478;2023-06-10T00:27:12;97653.34;;;41.21;13.44
36284;BME280;56085;48.910;9.478;2023-06-10T00:29:38;97658.78;;;41.16;13.14
36284;BME280;56085;48.910;9.478;2023-06-10T00:32:04;97655.78;;;41.32;13.52
36284;BME280;56085;48.910;9.478;2023-06-10T00:34:29;97658.06;;;41.41;13.25
36284;BME280;56085;48.910;9.478;2023-06-10T00:36:55;97640.22;;;41.20;13.54
36284;BME280;56085;48.910;9.478;2023-06-10T00:39:20;97644.34;;;41.09;13.23
36284;BME280;56085;48.910;9.478;2023-06-10T00:41:45;97654.22;;;41.39;13.20
36284;BME280;56085;48.910;9.478;2023-06-10T00:44:10;97646.41;;;41.16;13.44
36284;BME280;56085;48.910;9.478;2023-06-10T00:46:36;97667.88;;;41.13;13.65
36284;BME280;56085;48.910;9.478;2023-06-10T00:49:02;97650.72;;;41.07;13.21
36284;BME280;56085;48.910;9.478;2023-06-10T00:51:27;97645.97;;;40.94;13.45
36284;BME280;56085;48.910;9.478;2023-06-10T00:53:53;97697.28;;;41.09;13.50
36284;BME280;56085;48.910;9.478;2023-06-10T00:56:20;97708.59;;;40.82;13.32
36284;BME280;56085;48.910;9.478;2023-06-10T00:58:47;97737.00;;;40.83;13.62
36284;BME280;56085;48.910;9.478;2023-06-10T01:01:12;97652.47;;;40.62;13.69
36284;BME280;56085;48.910;9.478;2023-06-10T01:03:39;97704.69;;;40.87;13.37
36284;BME280;56085;48.910;9.478;2023-06-10T01:07:14;97803.59;;;41.88;13.05
36284;BME280;56085;48.910;9.478;2023-06-10T01:09:24;97816.09;;;41.65;13.48
36284;BME280;56085;48.910;9.478;2023-06-10T01:12:17;97811.88;;;42.17;13.26
36284;BME280;56085;48.910;9.478;2023-06-10T01:14:44;97665.47;;;41.27;13.20
36284;BME280;56085;48.910;9.478;2023-06-10T01:17:10;97692.97;;;40.77;13.46
36284;BME280;56085;48.910;9.478;2023-06-10T01:19:36;97664.72;;;40.93;13.78
36284;BME280;56085;48.910;9.478;2023-06-10T01:22:02;97649.91;;;40.74;13.82
36284;BME280;56085;48.910;9.478;2023-06-10T01:24:28;97670.47;;;40.53;13.78
36284;BME280;56085;48.910;9.478;2023-06-10T01:26:55;97771.00;;;40.75;13.32
36284;BME280;56085;48.910;9.478;2023-06-10T01:29:35;97784.66;;;41.06;13.54
36284;BME280;56085;48.910;9.478;2023-06-10T01:32:15;97795.84;;;41.09;13.55
36284;BME280;56085;48.910;9.478;2023-06-10T01:34:43;97737.13;;;40.29;13.81
36284;BME280;56085;48.910;9.478;2023-06-10T01:37:13;97793.47;;;40.52;13.42
36284;BME280;56085;48.910;9.478;2023-06-10T01:39:41;97707.97;;;40.27;13.49
36284;BME280;56085;48.910;9.478;2023-06-10T01:42:08;97701.06;;;40.07;13.86
36284;BME280;56085;48.910;9.478;2023-06-10T01:44:35;97659.75;;;40.07;13.92
36284;BME280;56085;48.910;9.478;2023-06-10T01:47:00;97660.28;;;40.28;13.70
36284;BME280;56085;48.910;9.478;2023-06-10T01:49:25;97650.72;;;40.66;13.91
36284;BME280;56085;48.910;9.478;2023-06-10T01:51:51;97660.94;;;40.68;13.78
36284;BME280;56085;48.910;9.478;2023-06-10T01:54:16;97661.94;;;40.62;13.77
36284;BME280;56085;48.910;9.478;2023-06-10T01:56:41;97658.53;;;40.41;13.74
36284;BME280;56085;48.910;9.478;2023-06-10T01:59:07;97658.88;;;40.45;14.10
36284;BME280;56085;48.910;9.478;2023-06-10T02:01:33;97677.44;;;40.50;14.02
36284;BME280;56085;48.910;9.478;2023-06-10T02:03:58;97671.25;;;40.38;14.00
36284;BME280;56085;48.910;9.478;2023-06-10T02:06:23;97663.19;;;40.28;14.14
36284;BME280;56085;48.910;9.478;2023-06-10T02:08:49;97672.88;;;40.08;14.20
36284;BME280;56085;48.910;9.478;2023-06-10T02:11:14;97677.69;;;40.21;14.06
36284;BME280;56085;48.910;9.478;2023-06-10T02:13:39;97664.75;;;40.14;13.93
36284;BME280;56085;48.910;9.478;2023-06-10T02:16:04;97647.38;;;40.22;14.10
36284;BME280;56085;48.910;9.478;2023-06-10T02:18:30;97679.63;;;40.03;14.29
36284;BME280;56085;48.910;9.478;2023-06-10T02:20:56;97677.31;;;40.17;14.13
36284;BME280;56085;48.910;9.478;2023-06-10T02:23:21;97676.69;;;40.34;14.35
36284;BME280;56085;48.910;9.478;2023-06-10T02:25:46;97680.75;;;40.00;14.07
36284;BME280;56085;48.910;9.478;2023-06-10T02:28:13;97685.41;;;40.10;14.17
36284;BME280;56085;48.910;9.478;2023-06-10T02:30:42;97813.91;;;40.69;14.15
36284;BME280;56085;48.910;9.478;2023-06-10T02:33:08;97690.78;;;40.29;14.26
36284;BME280;56085;48.910;9.478;2023-06-10T02:35:37;97706.78;;;40.46;14.50
36284;BME280;56085;48.910;9.478;2023-06-10T02:38:03;97680.16;;;40.24;14.46
36284;BME280;56085;48.910;9.478;2023-06-10T02:40:29;97688.84;;;40.24;14.23
36284;BME280;56085;48.910;9.478;2023-06-10T02:42:54;97672.63;;;40.29;14.39
36284;BME280;56085;48.910;9.478;2023-06-10T02:45:19;97677.25;;;40.40;14.48
36284;BME280;56085;48.910;9.478;2023-06-10T02:47:45;97675.91;;;40.41;14.34
36284;BME280;56085;48.910;9.478;2023-06-10T02:50:10;97666.25;;;40.46;14.18
36284;BME280;56085;48.910;9.478;2023-06-10T02:52:36;97679.75;;;40.36;14.73
36284;BME280;56085;48.910;9.478;2023-06-10T02:55:01;97678.91;;;40.66;14.18
36284;BME280;56085;48.910;9.478;2023-06-10T02:57:26;97665.34;;;40.76;14.28
36284;BME280;56085;48.910;9.478;2023-06-10T02:59:51;97685.09;;;40.62;14.11
36284;BME280;56085;48.910;9.478;2023-06-10T03:02:18;97670.03;;;40.72;14.51
36284;BME280;56085;48.910;9.478;2023-06-10T03:04:43;97661.88;;;40.78;14.18
36284;BME280;56085;48.910;9.478;2023-06-10T03:07:10;97663.84;;;40.68;14.52
36284;BME280;56085;48.910;9.478;2023-06-10T03:09:36;97679.69;;;40.66;14.42
36284;BME280;56085;48.910;9.478;2023-06-10T03:12:01;97681.97;;;40.76;14.40
36284;BME280;56085;48.910;9.478;2023-06-10T03:14:27;97675.81;;;40.72;14.17
36284;BME280;56085;48.910;9.478;2023-06-10T03:16:52;97683.03;;;41.04;14.57
36284;BME280;56085;48.910;9.478;2023-06-10T03:19:18;97683.75;;;41.12;14.44
36284;BME280;56085;48.910;9.478;2023-06-10T03:21:44;97732.53;;;40.90;14.33
36284;BME280;56085;48.910;9.478;2023-06-10T03:24:10;97667.63;;;40.86;14.63
36284;BME280;56085;48.910;9.478;2023-06-10T03:26:36;97681.75;;;40.89;14.54
36284;BME280;56085;48.910;9.478;2023-06-10T03:29:01;97701.50;;;40.68;14.52
36284;BME280;56085;48.910;9.478;2023-06-10T03:31:35;97849.78;;;41.12;14.33
36284;BME280;56085;48.910;9.478;2023-06-10T03:34:03;97686.06;;;40.65;14.40
36284;BME280;56085;48.910;9.478;2023-06-10T03:36:29;97692.78;;;40.75;14.33
36284;BME280;56085;48.910;9.478;2023-06-10T03:38:54;97686.41;;;40.77;14.50
36284;BME280;56085;48.910;9.478;2023-06-10T03:41:22;97693.66;;;40.53;14.81
36284;BME280;56085;48.910;9.478;2023-06-10T03:43:47;97717.59;;;40.53;14.88
36284;BME280;56085;48.910;9.478;2023-06-10T03:46:13;97699.28;;;40.35;14.71
36284;BME280;56085;48.910;9.478;2023-06-10T03:48:38;97711.41;;;40.57;14.54
36284;BME280;56085;48.910;9.478;2023-06-10T03:51:04;97699.28;;;40.35;15.13
36284;BME280;56085;48.910;9.478;2023-06-10T03:53:29;97703.69;;;40.44;14.82
36284;BME280;56085;48.910;9.478;2023-06-10T03:55:55;97713.69;;;40.66;14.84
36284;BME280;56085;48.910;9.478;2023-06-10T03:58:22;97709.31;;;40.50;15.21
36284;BME280;56085;48.910;9.478;2023-06-10T04:00:47;97704.44;;;40.60;15.04
36284;BME280;56085;48.910;9.478;2023-06-10T04:03:14;97710.25;;;40.29;14.83
36284;BME280;56085;48.910;9.478;2023-06-10T04:05:40;97729.97;;;40.38;14.99
36284;BME280;56085;48.910;9.478;2023-06-10T04:08:06;97720.44;;;40.61;15.19
36284;BME280;56085;48.910;9.478;2023-06-10T04:10:32;97694.97;;;40.67;15.21
36284;BME280;56085;48.910;9.478;2023-06-10T04:12:57;97724.47;;;40.73;14.83
36284;BME280;56085;48.910;9.478;2023-06-10T04:15:22;97703.06;;;40.69;15.31
36284;BME280;56085;48.910;9.478;2023-06-10T04:17:47;97713.97;;;40.86;15.21
36284;BME280;56085;48.910;9.478;2023-06-10T04:20:14;97701.38;;;40.42;15.06
36284;BME280;56085;48.910;9.478;2023-06-10T04:22:39;97720.25;;;40.66;15.04
36284;BME280;56085;48.910;9.478;2023-06-10T04:25:05;97724.94;;;40.31;15.21
36284;BME280;56085;48.910;9.478;2023-06-10T04:27:32;97723.97;;;40.44;15.33
36284;BME280;56085;48.910;9.478;2023-06-10T04:29:57;97734.31;;;40.78;15.01
36284;BME280;56085;48.910;9.478;2023-06-10T04:32:23;97725.66;;;40.70;15.31
36284;BME280;56085;48.910;9.478;2023-06-10T04:34:48;97745.28;;;40.87;14.79
36284;BME280;56085;48.910;9.478;2023-06-10T04:37:14;97721.84;;;41.00;15.05
36284;BME280;56085;48.910;9.478;2023-06-10T04:39:39;97730.13;;;41.12;15.39
36284;BME280;56085;48.910;9.478;2023-06-10T04:42:06;97737.72;;;40.99;15.06
36284;BME280;56085;48.910;9.478;2023-06-10T04:44:32;97725.44;;;41.16;14.93
36284;BME280;56085;48.910;9.478;2023-06-10T04:46:57;97733.13;;;41.29;15.25
36284;BME280;56085;48.910;9.478;2023-06-10T04:49:22;97741.47;;;41.58;15.19
36284;BME280;56085;48.910;9.478;2023-06-10T04:51:48;97745.56;;;41.14;15.08
36284;BME280;56085;48.910;9.478;2023-06-10T04:54:13;97734.56;;;41.54;14.83
36284;BME280;56085;48.910;9.478;2023-06-10T04:56:38;97736.91;;;41.80;15.19
36284;BME280;56085;48.910;9.478;2023-06-10T04:59:04;97729.91;;;42.09;15.10
36284;BME280;56085;48.910;9.478;2023-06-10T05:01:29;97740.66;;;41.65;15.08
36284;BME280;56085;48.910;9.478;2023-06-10T05:03:55;97753.22;;;41.35;14.81
36284;BME280;56085;48.910;9.478;2023-06-10T05:06:20;97735.09;;;42.10;15.16
36284;BME280;56085;48.910;9.478;2023-06-10T05:08:45;97716.44;;;42.21;15.04
36284;BME280;56085;48.910;9.478;2023-06-10T05:11:11;97725.44;;;42.08;15.13
36284;BME280;56085;48.910;9.478;2023-06-10T05:13:36;97735.22;;;42.20;14.87
36284;BME280;56085;48.910;9.478;2023-06-10T05:16:01;97736.88;;;42.06;14.90
36284;BME280;56085;48.910;9.478;2023-06-10T05:18:27;97725.97;;;42.14;15.15
36284;BME280;56085;48.910;9.478;2023-06-10T05:20:52;97740.97;;;42.28;15.19
36284;BME280;56085;48.910;9.478;2023-06-10T05:23:19;97734.13;;;42.33;14.95
36284;BME280;56085;48.910;9.478;2023-06-10T05:25:44;97743.97;;;42.55;14.92
36284;BME280;56085;48.910;9.478;2023-06-10T05:28:10;97741.38;;;42.24;14.84
36284;BME280;56085;48.910;9.478;2023-06-10T05:30:36;97750.63;;;42.48;15.07
36284;BME280;56085;48.910;9.478;2023-06-10T05:33:03;97872.41;;;42.53;14.65
36284;BME280;56085;48.910;9.478;2023-06-10T05:35:29;97735.44;;;42.40;15.07
36284;BME280;56085;48.910;9.478;2023-06-10T05:37:54;97752.69;;;42.90;14.89
36284;BME280;56085;48.910;9.478;2023-06-10T05:40:19;97735.84;;;43.06;14.82
36284;BME280;56085;48.910;9.478;2023-06-10T05:42:45;97722.03;;;43.24;15.15
36284;BME280;56085;48.910;9.478;2023-06-10T05:45:10;97751.50;;;43.55;14.67
36284;BME280;56085;48.910;9.478;2023-06-10T05:47:35;97740.84;;;43.78;14.68
36284;BME280;56085;48.910;9.478;2023-06-10T05:50:01;97750.13;;;43.93;14.72
36284;BME280;56085;48.910;9.478;2023-06-10T05:52:26;97739.91;;;43.75;14.88
36284;BME280;56085;48.910;9.478;2023-06-10T05:54:51;97742.81;;;43.65;14.62
36284;BME280;56085;48.910;9.478;2023-06-10T05:57:16;97750.72;;;43.55;14.51
36284;BME280;56085;48.910;9.478;2023-06-10T05:59:42;97733.94;;;44.00;14.84
36284;BME280;56085;48.910;9.478;2023-06-10T06:02:07;97742.28;;;44.33;14.59
36284;BME280;56085;48.910;9.478;2023-06-10T06:04:33;97785.31;;;44.72;14.81
36284;BME280;56085;48.910;9.478;2023-06-10T06:06:59;97757.31;;;44.39;14.80
36284;BME280;56085;48.910;9.478;2023-06-10T06:09:24;97744.28;;;44.31;14.56
36284;BME280;56085;48.910;9.478;2023-06-10T06:11:49;97754.25;;;44.37;14.36
36284;BME280;56085;48.910;9.478;2023-06-10T06:14:15;97746.81;;;44.73;14.44
36284;BME280;56085;48.910;9.478;2023-06-10T06:16:40;97752.00;;;44.85;14.42
36284;BME280;56085;48.910;9.478;2023-06-10T06:19:05;97761.81;;;44.60;14.32
36284;BME280;56085;48.910;9.478;2023-06-10T06:21:31;97747.84;;;44.97;14.18
36284;BME280;56085;48.910;9.478;2023-06-10T06:23:56;97742.81;;;45.08;14.50
36284;BME280;56085;48.910;9.478;2023-06-10T06:26:22;97745.09;;;45.19;14.23
36284;BME280;56085;48.910;9.478;2023-06-10T06:28:48;97739.19;;;45.39;13.96
36284;BME280;56085;48.910;9.478;2023-06-10T06:31:13;97741.50;;;45.91;13.98
36284;BME280;56085;48.910;9.478;2023-06-10T06:33:38;97732.03;;;46.12;13.70
36284;BME280;56085;48.910;9.478;2023-06-10T06:36:04;97742.47;;;46.47;14.02
36284;BME280;56085;48.910;9.478;2023-06-10T06:38:29;97744.31;;;45.89;13.93
36284;BME280;56085;48.910;9.478;2023-06-10T06:40:54;97738.75;;;46.25;13.59
36284;BME280;56085;48.910;9.478;2023-06-10T06:43:20;97750.97;;;46.64;13.26
36284;BME280;56085;48.910;9.478;2023-06-10T06:45:45;97793.84;;;46.09;13.48
36284;BME280;56085;48.910;9.478;2023-06-10T06:48:11;97793.13;;;45.98;13.25
36284;BME280;56085;48.910;9.478;2023-06-10T06:50:37;97748.59;;;46.20;13.49
36284;BME280;56085;48.910;9.478;2023-06-10T06:53:03;97784.50;;;46.63;13.06
36284;BME280;56085;48.910;9.478;2023-06-10T06:55:28;97772.78;;;46.42;13.24
36284;BME280;56085;48.910;9.478;2023-06-10T06:57:54;97761.31;;;46.99;13.20
36284;BME280;56085;48.910;9.478;2023-06-10T07:00:19;97734.28;;;47.22;13.01
36284;BME280;56085;48.910;9.478;2023-06-10T07:02:45;97761.31;;;46.99;13.26
36284;BME280;56085;48.910;9.478;2023-06-10T07:05:10;97747.25;;;47.19;12.83
36284;BME280;56085;48.910;9.478;2023-06-10T07:07:35;97749.66;;;47.23;12.75
36284;BME280;56085;48.910;9.478;2023-06-10T07:10:01;97748.38;;;47.71;12.59
36284;BME280;56085;48.910;9.478;2023-06-10T07:12:26;97738.56;;;47.54;12.82
36284;BME280;56085;48.910;9.478;2023-06-10T07:14:51;97739.00;;;47.72;12.69
36284;BME280;56085;48.910;9.478;2023-06-10T07:17:17;97795.09;;;47.57;12.55
36284;BME280;56085;48.910;9.478;2023-06-10T07:19:43;97760.41;;;47.99;12.41
36284;BME280;56085;48.910;9.478;2023-06-10T07:22:12;97943.88;;;48.16;12.54
36284;BME280;56085;48.910;9.478;2023-06-10T07:24:38;97767.69;;;48.10;12.65
36284;BME280;56085;48.910;9.478;2023-06-10T07:27:03;97754.00;;;48.38;12.33
36284;BME280;56085;48.910;9.478;2023-06-10T07:29:29;97730.72;;;48.16;12.18
36284;BME280;56085;48.910;9.478;2023-06-10T07:31:54;97734.47;;;48.42;11.74
36284;BME280;56085;48.910;9.478;2023-06-10T07:34:19;97729.00;;;48.61;11.75
36284;BME280;56085;48.910;9.478;2023-06-10T07:36:45;97761.00;;;48.56;11.71
36284;BME280;56085;48.910;9.478;2023-06-10T07:39:10;97750.34;;;48.75;11.92
36284;BME280;56085;48.910;9.478;2023-06-10T07:41:35;97740.13;;;48.76;11.83
36284;BME280;56085;48.910;9.478;2023-06-10T07:44:01;97752.50;;;48.86;11.88
36284;BME280;56085;48.910;9.478;2023-06-10T07:46:26;97719.31;;;48.96;11.66
36284;BME280;56085;48.910;9.478;2023-06-10T07:48:53;97845.50;;;49.21;11.11
36284;BME280;56085;48.910;9.478;2023-06-10T07:51:20;97709.72;;;48.95;11.23
36284;BME280;56085;48.910;9.478;2023-06-10T07:53:45;97747.78;;;48.20;11.91
36284;BME280;56085;48.910;9.478;2023-06-10T07:56:11;97768.75;;;48.64;11.86
36284;BME280;56085;48.910;9.478;2023-06-10T07:58:36;97759.97;;;48.64;11.74
36284;BME280;56085;48.910;9.478;2023-06-10T08:01:02;97750.34;;;48.87;11.48
36284;BME280;56085;48.910;9.478;2023-06-10T08:03:27;97758.22;;;48.47;11.00
36284;BME280;56085;48.910;9.478;2023-06-10T08:05:52;97760.91;;;48.19;11.55
36284;BME280;56085;48.910;9.478;2023-06-10T08:08:18;97780.53;;;48.28;11.31
36284;BME280;56085;48.910;9.478;2023-06-10T08:10:43;97734.91;;;49.38;11.27
36284;BME280;56085;48.910;9.478;2023-06-10T08:13:08;97761.31;;;49.64;11.31
36284;BME280;56085;48.910;9.478;2023-06-10T08:15:34;97756.34;;;49.15;11.23
36284;BME280;56085;48.910;9.478;2023-06-10T08:17:59;97749.81;;;49.42;10.64
36284;BME280;56085;48.910;9.478;2023-06-10T08:20:25;97756.72;;;49.60;11.17
36284;BME280;56085;48.910;9.478;2023-06-10T08:22:50;97745.25;;;49.13;10.92
36284;BME280;56085;48.910;9.478;2023-06-10T08:25:15;97762.78;;;48.62;10.86
36284;BME280;56085;48.910;9.478;2023-06-10T08:27:41;97734.25;;;49.14;11.08
36284;BME280;56085;48.910;9.478;2023-06-10T08:30:07;97778.84;;;48.25;10.92
36284;BME280;56085;48.910;9.478;2023-06-10T08:32:33;97743.19;;;48.90;10.81
36284;BME280;56085;48.910;9.478;2023-06-10T08:34:58;97734.78;;;49.36;10.47
36284;BME280;56085;48.910;9.478;2023-06-10T08:37:24;97744.63;;;49.54;10.87
36284;BME280;56085;48.910;9.478;2023-06-10T08:39:49;97750.19;;;48.85;10.83
36284;BME280;56085;48.910;9.478;2023-06-10T08:42:25;97885.59;;;49.80;10.33
36284;BME280;56085;48.910;9.478;2023-06-10T08:44:54;97787.38;;;49.97;10.69
36284;BME280;56085;48.910;9.478;2023-06-10T08:47:24;97758.97;;;50.57;10.53
36284;BME280;56085;48.910;9.478;2023-06-10T08:49:51;97779.34;;;50.67;10.12
36284;BME280;56085;48.910;9.478;2023-06-10T08:52:19;97816.16;;;50.54;10.26
36284;BME280;56085;48.910;9.478;2023-06-10T08:54:57;97928.78;;;51.40;10.13
36284;BME280;56085;48.910;9.478;2023-06-10T08:57:25;97807.38;;;51.12;9.67
36284;BME280;56085;48.910;9.478;2023-06-10T08:59:50;97747.47;;;50.91;10.44
36284;BME280;56085;48.910;9.478;2023-06-10T09:02:16;97739.19;;;50.88;10.14
36284;BME280;56085;48.910;9.478;2023-06-10T09:04:46;97833.88;;;51.12;10.26
36284;BME280;56085;48.910;9.478;2023-06-10T09:07:12;97779.94;;;51.07;10.15
36284;BME280;56085;48.910;9.478;2023-06-10T09:09:39;97789.25;;;50.74;10.02
36284;BME280;56085;48.910;9.478;2023-06-10T09:12:07;97736.31;;;51.33;9.39
36284;BME280;56085;48.910;9.478;2023-06-10T09:14:32;97724.56;;;51.81;10.04
36284;BME280;56085;48.910;9.478;2023-06-10T09:16:57;97692.53;;;51.90;9.88
36284;BME280;56085;48.910;9.478;2023-06-10T09:19:24;97759.91;;;51.97;9.53
36284;BME280;56085;48.910;9.478;2023-06-10T09:21:50;97726.94;;;52.17;9.64
36284;BME280;56085;48.910;9.478;2023-06-10T09:24:15;97720.34;;;52.34;9.45
36284;BME280;56085;48.910;9.478;2023-06-10T09:26:42;97831.50;;;52.48;9.67
36284;BME280;56085;48.910;9.478;2023-06-10T09:29:08;97725.03;;;52.58;9.23
36284;BME280;56085;48.910;9.478;2023-06-10T09:31:35;97733.09;;;52.57;9.10
36284;BME280;56085;48.910;9.478;2023-06-10T09:34:12;97905.84;;;53.10;9.16
36284;BME280;56085;48.910;9.478;2023-06-10T09:36:39;97755.56;;;52.48;9.19
36284;BME280;56085;48.910;9.478;2023-06-10T09:39:05;97738.38;;;52.43;8.88
36284;BME280;56085;48.910;9.478;2023-06-10T09:41:34;97905.13;;;52.78;8.74
36284;BME280;56085;48.910;9.478;2023-06-10T09:44:00;97735.88;;;52.53;9.00
36284;BME280;56085;48.910;9.478;2023-06-10T09:46:30;97898.03;;;53.01;8.88
36284;BME280;56085;48.910;9.478;2023-06-10T09:48:57;97719.16;;;52.94;9.02
36284;BME280;56085;48.910;9.478;2023-06-10T09:51:22;97700.94;;;52.63;8.89
36284;BME280;56085;48.910;9.478;2023-06-10T09:53:49;97784.09;;;52.10;8.97
36284;BME280;56085;48.910;9.478;2023-06-10T09:56:15;97712.34;;;52.37;8.86
36284;BME280;56085;48.910;9.478;2023-06-10T09:58:41;97706.34;;;52.87;8.56
36284;BME280;56085;48.910;9.478;2023-06-10T10:01:10;97787.31;;;53.36;8.91
36284;BME280;56085;48.910;9.478;2023-06-10T10:03:43;97934.78;;;54.40;8.64
36284;BME280;56085;48.910;9.478;2023-06-10T10:06:11;97789.91;;;53.64;8.65
36284;BME280;56085;48.910;9.478;2023-06-10T10:08:37;97717.22;;;53.36;8.71
36284;BME280;56085;48.910;9.478;2023-06-10T10:11:03;97759.50;;;53.61;8.28
36284;BME280;56085;48.910;9.478;2023-06-10T10:13:29;97732.47;;;53.49;8.66
36284;BME280;56085;48.910;9.478;2023-06-10T10:15:58;97844.06;;;54.06;7.90
36284;BME280;56085;48.910;9.478;2023-06-10T10:18:29;97895.59;;;54.59;8.06
36284;BME280;56085;48.910;9.478;2023-06-10T10:20:57;97830.19;;;54.71;8.24
36284;BME280;56085;48.910;9.478;2023-06-10T10:23:31;97898.56;;;54.80;7.87
36284;BME280;56085;48.910;9.478;2023-06-10T10:25:58;97807.91;;;54.48;7.51
36284;BME280;56085;48.910;9.478;2023-06-10T10:28:31;97900.28;;;54.67;7.55
36284;BME280;56085;48.910;9.478;2023-06-10T10:31:02;97839.72;;;54.30;7.95
36284;BME280;56085;48.910;9.478;2023-06-10T10:33:42;97896.03;;;54.92;7.59
36284;BME280;56085;48.910;9.478;2023-06-10T10:36:09;97686.25;;;54.60;7.65
36284;BME280;56085;48.910;9.478;2023-06-10T10:38:36;97695.78;;;54.56;7.89
36284;BME280;56085;48.910;9.478;2023-06-10T10:41:01;97662.50;;;55.02;7.04
36284;BME280;56085;48.910;9.478;2023-06-10T10:43:27;97748.91;;;55.41;7.32
36284;BME280;56085;48.910;9.478;2023-06-10T10:46:00;97904.38;;;55.62;7.16
36284;BME280;56085;48.910;9.478;2023-06-10T10:48:26;97716.22;;;55.39;6.96
36284;BME280;56085;48.910;9.478;2023-06-10T10:50:57;97871.91;;;55.22;7.28
36284;BME280;56085;48.910;9.478;2023-06-10T10:53:23;97666.88;;;55.48;7.07
36284;BME280;56085;48.910;9.478;2023-06-10T10:55:58;97895.59;;;56.37;6.80
36284;BME280;56085;48.910;9.478;2023-06-10T10:58:24;97721.22;;;55.81;6.65
36284;BME280;56085;48.910;9.478;2023-06-10T11:00:50;97684.41;;;56.16;7.03
36284;BME280;56085;48.910;9.478;2023-06-10T11:03:16;97716.03;;;56.62;6.66
36284;BME280;56085;48.910;9.478;2023-06-10T11:05:46;97889.13;;;56.95;6.79
36284;BME280;56085;48.910;9.478;2023-06-10T11:10:58;97674.91;;;56.50;6.84
36284;BME280;56085;48.910;9.478;2023-06-10T11:13:25;97792.84;;;56.23;6.66
36284;BME280;56085;48.910;9.478;2023-06-10T11:15:51;97693.41;;;56.20;6.90
36284;BME280;56085;48.910;9.478;2023-06-10T11:18:23;97884.09;;;57.02;6.18
36284;BME280;56085;48.910;9.478;2023-06-10T11:21:03;97803.28;;;56.24;6.03
36284;BME280;56085;48.910;9.478;2023-06-10T11:31:26;97657.09;;;56.78;5.94
36284;BME280;56085;48.910;9.478;2023-06-10T11:33:56;97753.66;;;56.81;6.26
36284;BME280;56085;48.910;9.478;2023-06-10T11:36:27;97688.38;;;57.14;6.03
36284;BME280;56085;48.910;9.478;2023-06-10T11:38:58;97881.50;;;57.75;5.73
36284;BME280;56085;48.910;9.478;2023-06-10T11:41:24;97678.81;;;57.50;5.82
36284;BME280;56085;48.910;9.478;2023-06-10T11:43:52;97719.16;;;57.27;6.51
36284;BME280;56085;48.910;9.478;2023-06-10T11:46:17;97630.63;;;56.89;6.24
36284;BME280;56085;48.910;9.478;2023-06-10T11:48:53;97860.13;;;57.22;5.57
36284;BME280;56085;48.910;9.478;2023-06-10T11:51:19;97650.97;;;56.70;5.82
36284;BME280;56085;48.910;9.478;2023-06-10T11:53:45;97680.59;;;56.98;6.04
36284;BME280;56085;48.910;9.478;2023-06-10T11:56:10;97641.72;;;56.88;5.76
36284;BME280;56085;48.910;9.478;2023-06-10T11:58:36;97643.56;;;56.71;5.77
36284;BME280;56085;48.910;9.478;2023-06-10T12:01:01;97784.16;;;52.12;6.40
36284;BME280;56085;48.910;9.478;2023-06-10T12:03:35;97861.78;;;56.22;5.46
36284;BME280;56085;48.910;9.478;2023-06-10T12:06:03;97776.66;;;56.55;5.95
36284;BME280;56085;48.910;9.478;2023-06-10T12:08:29;97655.25;;;56.93;5.67
36284;BME280;56085;48.910;9.478;2023-06-10T12:10:55;97657.09;;;57.43;5.91
36284;BME280;56085;48.910;9.478;2023-06-10T12:13:22;97642.66;;;57.62;5.84
36284;BME280;56085;48.910;9.478;2023-06-10T12:15:48;97619.22;;;57.44;5.41
36284;BME280;56085;48.910;9.478;2023-06-10T12:18:22;97852.28;;;58.32;5.31
36284;BME280;56085;48.910;9.478;2023-06-10T12:20:48;97625.44;;;57.22;5.63
36284;BME280;56085;48.910;9.478;2023-06-10T12:23:14;97675.31;;;57.25;5.33
36284;BME280;56085;48.910;9.478;2023-06-10T12:25:49;97847.75;;;58.29;5.58
36284;BME280;56085;48.910;9.478;2023-06-10T12:28:14;97646.38;;;57.28;5.34
36284;BME280;56085;48.910;9.478;2023-06-10T12:30:40;97621.25;;;57.01;5.35
36284;BME280;56085;48.910;9.478;2023-06-10T12:33:21;97830.97;;;57.77;5.14
36284;BME280;56085;48.910;9.478;2023-06-10T12:35:48;97713.09;;;57.55;5.08
36284;BME280;56085;48.910;9.478;2023-06-10T12:38:14;97640.31;;;57.93;5.13
36284;BME280;56085;48.910;9.478;2023-06-10T12:40:40;97630.75;;;58.41;5.44
36284;BME280;56085;48.910;9.478;2023-06-10T12:43:06;97642.59;;;57.96;5.22
36284;BME280;56085;48.910;9.478;2023-06-10T12:45:33;97750.59;;;58.44;4.79
36284;BME280;56085;48.910;9.478;2023-06-10T12:48:19;97821.53;;;58.56;4.52
36284;BME280;56085;48.910;9.478;2023-06-10T12:50:54;97834.56;;;58.38;5.06
36284;BME280;56085;48.910;9.478;2023-06-10T12:53:20;97690.81;;;57.91;4.89
36284;BME280;56085;48.910;9.478;2023-06-10T12:55:46;97631.78;;;57.75;4.99
36284;BME280;56085;48.910;9.478;2023-06-10T12:58:12;97627.81;;;57.27;5.07
36284;BME280;56085;48.910;9.478;2023-06-10T13:00:38;97611.59;;;57.00;5.30
36284;BME280;56085;48.910;9.478;2023-06-10T13:03:04;97612.50;;;57.41;5.07
36284;BME280;56085;48.910;9.478;2023-06-10T13:05:33;97624.03;;;57.25;5.42
36284;BME280;56085;48.910;9.478;2023-06-10T13:07:59;97618.72;;;57.54;4.96
36284;BME280;56085;48.910;9.478;2023-06-10T13:10:25;97623.69;;;57.79;5.04